Time,TemperatureF,DewpointF,PressureIn,WindDirection,WindDirectionDegrees,WindSpeedMPH,WindSpeedGustMPH,Humidity,HourlyPrecipIn,Conditions,Clouds,dailyrainin,SoftwareType,DateUTC
2013-03-20 00:00:00,53.6,51.0,30.09,NNE,20,0.0,0.0,92,0.00,,,0.00,weatherlink.com 1.10,2013-03-20 07:00:00,
2013-03-20 00:04:00,53.6,51.3,30.08,NNE,20,0.0,0.0,92,0.00,,---,0.00,VWS V14.00,2013-03-20 07:04:00,
2013-03-20 00:17:00,53.6,52.0,30.08,NNE,20,0.0,0.0,93,0.00,,,0.00,weatherlink.com 1.10,2013-03-20 07:17:00,
2013-03-20 00:30:00,53.5,51.5,30.07,ENE,69,0.0,0.0,93,0.00,,---,0.00,VWS V14.00,2013-03-20 07:30:00,
2013-03-20 00:34:00,53.5,51.5,30.07,ENE,69,0.0,0.0,93,0.00,,---,0.00,VWS V14.00,2013-03-20 07:34:00,
2013-03-20 00:35:00,53.5,52.0,30.07,ENE,69,0.0,0.0,93,0.00,,,0.00,weatherlink.com 1.10,2013-03-20 07:35:00,
2013-03-20 01:00:00,53.3,51.6,30.07,East,88,0.0,0.0,94,0.00,,---,0.00,VWS V14.00,2013-03-20 08:00:00,
2013-03-20 01:04:00,53.3,51.6,30.07,East,88,0.0,0.0,94,0.00,,---,0.00,VWS V14.00,2013-03-20 08:04:00,
2013-03-20 01:09:00,53.2,52.0,30.07,East,88,0.0,0.0,94,0.00,,,0.00,weatherlink.com 1.10,2013-03-20 08:09:00,
2013-03-20 01:30:00,52.9,51.2,30.06,East,88,0.0,0.0,94,0.00,,---,0.00,VWS V14.00,2013-03-20 08:30:00,
2013-03-20 01:34:00,52.9,51.2,30.06,East,88,0.0,0.0,94,0.00,,---,0.00,VWS V14.00,2013-03-20 08:34:00,
2013-03-20 01:42:00,52.9,51.0,30.06,East,88,0.0,0.0,94,0.00,,,0.00,weatherlink.com 1.10,2013-03-20 08:42:00,
2013-03-20 02:00:00,52.7,51.0,30.06,East,88,0.0,0.0,94,0.00,,,0.00,weatherlink.com 1.10,2013-03-20 09:00:00,
2013-03-20 02:04:00,52.7,51.0,30.06,East,88,0.0,0.0,94,0.00,,---,0.00,VWS V14.00,2013-03-20 09:04:00,
2013-03-20 02:17:00,52.6,51.0,30.06,East,88,0.0,0.0,94,0.00,,,0.00,weatherlink.com 1.10,2013-03-20 09:17:00,
2013-03-20 02:30:00,52.2,50.5,30.04,East,88,0.0,0.0,94,0.00,,---,0.00,VWS V14.00,2013-03-20 09:30:00,
2013-03-20 02:34:00,52.2,50.5,30.04,East,88,0.0,0.0,94,0.00,,---,0.00,VWS V14.00,2013-03-20 09:34:00,
2013-03-20 02:35:00,52.2,51.0,30.04,East,88,0.0,0.0,94,0.00,,,0.00,weatherlink.com 1.10,2013-03-20 09:35:00,
2013-03-20 02:51:00,52.2,51.0,30.05,East,88,0.0,0.0,94,0.00,,,0.00,weatherlink.com 1.10,2013-03-20 09:51:00,
2013-03-20 03:00:00,52.1,50.4,30.05,East,88,0.0,0.0,94,0.00,,---,0.00,VWS V14.00,2013-03-20 10:00:00,
2013-03-20 03:04:00,52.1,50.4,30.05,East,88,0.0,0.0,94,0.00,,---,0.00,VWS V14.00,2013-03-20 10:04:00,
2013-03-20 03:26:00,52.2,51.0,30.03,East,88,0.0,0.0,95,0.00,,,0.00,weatherlink.com 1.10,2013-03-20 10:26:00,
2013-03-20 03:30:00,52.1,50.7,30.03,East,88,0.0,0.0,95,0.00,,---,0.00,VWS V14.00,2013-03-20 10:30:00,
2013-03-20 03:34:00,52.1,50.7,30.03,East,88,0.0,0.0,95,0.00,,---,0.00,VWS V14.00,2013-03-20 10:34:00,
2013-03-20 03:43:00,52.1,51.0,30.03,East,88,0.0,0.0,95,0.00,,,0.00,weatherlink.com 1.10,2013-03-20 10:43:00,
2013-03-20 04:00:00,52.0,51.0,30.03,East,88,0.0,0.0,95,0.00,,,0.00,weatherlink.com 1.10,2013-03-20 11:00:00,
2013-03-20 04:18:00,52.8,52.0,30.02,NE,44,0.0,1.0,96,0.00,,,0.00,weatherlink.com 1.10,2013-03-20 11:18:00,
2013-03-20 04:30:00,52.5,51.1,30.04,NNE,13,0.0,3.0,95,0.00,,---,0.00,VWS V14.00,2013-03-20 11:30:00,
2013-03-20 04:34:00,52.5,51.0,30.04,NNE,13,0.0,0.0,95,0.00,,,0.00,weatherlink.com 1.10,2013-03-20 11:34:00,
2013-03-20 04:52:00,52.2,51.0,30.04,NNE,12,0.0,0.0,96,0.00,,,0.00,weatherlink.com 1.10,2013-03-20 11:52:00,
2013-03-20 05:00:00,52.1,51.0,30.03,NNE,13,0.0,2.0,96,0.00,,---,0.00,VWS V14.00,2013-03-20 12:00:00,
2013-03-20 05:04:00,52.1,51.0,30.03,NNE,13,0.0,2.0,96,0.00,,---,0.00,VWS V14.00,2013-03-20 12:04:00,
2013-03-20 05:26:00,51.6,51.0,30.03,NNE,12,0.0,0.0,96,0.00,,,0.00,weatherlink.com 1.10,2013-03-20 12:26:00,
2013-03-20 05:30:00,51.2,49.8,30.02,ESE,104,0.0,0.0,95,0.00,,---,0.00,VWS V14.00,2013-03-20 12:30:00,
2013-03-20 05:34:00,51.2,49.8,30.02,ESE,104,0.0,0.0,95,0.00,,---,0.00,VWS V14.00,2013-03-20 12:34:00,
2013-03-20 05:43:00,50.8,50.0,30.02,ESE,113,0.0,1.0,95,0.00,,,0.00,weatherlink.com 1.10,2013-03-20 12:43:00,
2013-03-20 06:00:00,50.5,49.4,30.01,ESE,117,0.0,0.0,96,0.00,,---,0.00,VWS V14.00,2013-03-20 13:00:00,
2013-03-20 06:01:00,50.5,49.0,30.01,ESE,117,0.0,0.0,96,0.00,,,0.00,weatherlink.com 1.10,2013-03-20 13:01:00,
2013-03-20 06:04:00,50.5,49.4,30.01,ESE,117,0.0,0.0,96,0.00,,---,0.00,VWS V14.00,2013-03-20 13:04:00,
2013-03-20 06:17:00,50.7,50.0,30.02,ESE,116,0.0,0.0,96,0.00,,,0.00,weatherlink.com 1.10,2013-03-20 13:17:00,
2013-03-20 06:30:00,50.5,49.4,30.02,ESE,116,0.0,0.0,96,0.00,,---,0.00,VWS V14.00,2013-03-20 13:30:00,
2013-03-20 06:34:00,50.5,49.4,30.02,ESE,116,0.0,0.0,96,0.00,,---,0.00,VWS V14.00,2013-03-20 13:34:00,
2013-03-20 06:52:00,50.3,49.0,30.03,ESE,116,0.0,0.0,96,0.00,,,0.00,weatherlink.com 1.10,2013-03-20 13:52:00,
2013-03-20 07:00:00,50.1,48.7,30.03,ESE,116,0.0,0.0,95,0.00,,---,0.00,VWS V14.00,2013-03-20 14:00:00,
2013-03-20 07:04:00,50.1,48.7,30.03,ESE,116,0.0,0.0,95,0.00,,---,0.00,VWS V14.00,2013-03-20 14:04:00,
2013-03-20 07:08:00,50.1,49.0,30.03,ESE,116,0.0,0.0,96,0.00,,,0.00,weatherlink.com 1.10,2013-03-20 14:08:00,
2013-03-20 07:30:00,50.4,49.3,30.05,ESE,116,0.0,0.0,96,0.00,,---,0.00,VWS V14.00,2013-03-20 14:30:00,
2013-03-20 07:34:00,50.4,49.3,30.05,ESE,116,0.0,0.0,96,0.00,,---,0.00,VWS V14.00,2013-03-20 14:34:00,
2013-03-20 07:43:00,51.2,50.0,30.05,ESE,116,0.0,0.0,96,0.00,,,0.00,weatherlink.com 1.10,2013-03-20 14:43:00,
2013-03-20 08:00:00,52.2,51.0,30.04,East,94,0.0,4.0,95,0.00,,,0.00,weatherlink.com 1.10,2013-03-20 15:00:00,
2013-03-20 08:04:00,52.2,50.5,30.03,East,94,0.0,4.0,94,0.00,,---,0.00,VWS V14.00,2013-03-20 15:04:00,
2013-03-20 08:18:00,53.4,52.0,30.03,SE,146,0.0,1.0,93,0.00,,,0.00,weatherlink.com 1.10,2013-03-20 15:18:00,
2013-03-20 08:30:00,54.8,52.5,30.05,SE,146,0.0,0.0,92,0.00,,---,0.00,VWS V14.00,2013-03-20 15:30:00,
2013-03-20 08:34:00,54.8,52.5,30.05,SE,146,0.0,0.0,92,0.00,,---,0.00,VWS V14.00,2013-03-20 15:34:00,
2013-03-20 08:35:00,54.9,53.0,30.05,SE,146,0.0,0.0,92,0.00,,,0.00,weatherlink.com 1.10,2013-03-20 15:35:00,
2013-03-20 08:51:00,56.5,54.0,30.05,SE,146,0.0,0.0,90,0.00,,,0.00,weatherlink.com 1.10,2013-03-20 15:51:00,
2013-03-20 09:00:00,57.3,53.5,30.05,SE,146,0.0,0.0,87,0.00,,---,0.00,VWS V14.00,2013-03-20 16:00:00,
2013-03-20 09:04:00,57.3,53.5,30.05,SE,146,0.0,0.0,87,0.00,,---,0.00,VWS V14.00,2013-03-20 16:04:00,
2013-03-20 09:09:00,57.4,54.0,30.05,SSW,205,0.0,0.0,88,0.00,,,0.00,weatherlink.com 1.10,2013-03-20 16:09:00,
2013-03-20 09:27:00,57.1,54.0,30.06,WNW,300,0.0,5.0,89,0.00,,,0.00,weatherlink.com 1.10,2013-03-20 16:27:00,
2013-03-20 09:30:00,56.9,53.4,30.06,WNW,293,3.0,7.0,88,0.00,,---,0.00,VWS V14.00,2013-03-20 16:30:00,
2013-03-20 09:34:00,56.9,53.4,30.06,WNW,293,3.0,7.0,88,0.00,,---,0.00,VWS V14.00,2013-03-20 16:34:00,
2013-03-20 09:44:00,56.4,54.0,30.06,NW,311,4.0,5.0,90,0.00,,,0.00,weatherlink.com 1.10,2013-03-20 16:44:00,
2013-03-20 10:00:00,56.9,54.0,30.06,West,267,0.0,6.0,90,0.00,,,0.00,weatherlink.com 1.10,2013-03-20 17:00:00,
2013-03-20 10:18:00,56.9,54.0,30.06,WSW,237,0.0,6.0,90,0.00,,,0.00,weatherlink.com 1.10,2013-03-20 17:18:00,
2013-03-20 10:30:00,57.5,54.6,30.06,WNW,286,2.0,5.0,90,0.00,,---,0.00,VWS V14.00,2013-03-20 17:30:00,
2013-03-20 10:34:00,57.5,54.6,30.06,WNW,286,2.0,5.0,90,0.00,,---,0.00,VWS V14.00,2013-03-20 17:34:00,
2013-03-20 10:52:00,57.8,55.0,30.06,West,273,6.0,8.0,89,0.00,,,0.00,weatherlink.com 1.10,2013-03-20 17:52:00,
2013-03-20 11:00:00,58.1,54.9,30.08,West,281,0.0,8.0,89,0.00,,---,0.00,VWS V14.00,2013-03-20 18:00:00,
2013-03-20 11:04:00,58.1,54.9,30.08,West,281,0.0,8.0,89,0.00,,---,0.00,VWS V14.00,2013-03-20 18:04:00,
2013-03-20 11:09:00,58.1,55.0,30.08,WNW,290,10.0,10.0,89,0.00,,,0.00,weatherlink.com 1.10,2013-03-20 18:09:00,
2013-03-20 11:27:00,59.1,55.0,30.08,WNW,290,0.0,9.0,86,0.00,,,0.00,weatherlink.com 1.10,2013-03-20 18:27:00,
2013-03-20 11:30:00,59.8,55.0,30.08,West,278,7.0,10.0,84,0.00,,---,0.00,VWS V14.00,2013-03-20 18:30:00,
2013-03-20 11:34:00,59.8,55.0,30.08,West,278,7.0,10.0,84,0.00,,---,0.00,VWS V14.00,2013-03-20 18:34:00,
2013-03-20 11:44:00,59.9,55.0,30.08,WSW,242,0.0,8.0,84,0.00,,,0.00,weatherlink.com 1.10,2013-03-20 18:44:00,
2013-03-20 12:00:00,61.2,55.7,30.06,WNW,283,0.0,8.0,82,0.00,,---,0.00,VWS V14.00,2013-03-20 19:00:00,
2013-03-20 12:02:00,61.2,55.0,30.06,WNW,284,4.0,7.0,81,0.00,,,0.00,weatherlink.com 1.10,2013-03-20 19:02:00,
2013-03-20 12:04:00,61.2,55.7,30.06,WNW,283,0.0,8.0,82,0.00,,---,0.00,VWS V14.00,2013-03-20 19:04:00,
2013-03-20 12:19:00,61.1,56.0,30.06,West,281,0.0,7.0,82,0.00,,,0.00,weatherlink.com 1.10,2013-03-20 19:19:00,
2013-03-20 12:30:00,60.9,55.4,30.06,West,265,0.0,8.0,82,0.00,,---,0.00,VWS V14.00,2013-03-20 19:30:00,
2013-03-20 12:34:00,60.9,55.4,30.06,West,265,0.0,8.0,82,0.00,,---,0.00,VWS V14.00,2013-03-20 19:34:00,
2013-03-20 12:35:00,60.9,55.0,30.06,WNW,286,0.0,8.0,82,0.00,,,0.00,weatherlink.com 1.10,2013-03-20 19:35:00,
2013-03-20 12:53:00,60.3,56.0,30.06,WSW,238,0.0,9.0,85,0.00,,,0.00,weatherlink.com 1.10,2013-03-20 19:53:00,
2013-03-20 13:00:00,60.4,55.2,30.06,West,276,3.0,9.0,83,0.00,,---,0.00,VWS V14.00,2013-03-20 20:00:00,
2013-03-20 13:04:00,60.4,55.2,30.06,West,276,3.0,9.0,83,0.00,,---,0.00,VWS V14.00,2013-03-20 20:04:00,
2013-03-20 13:10:00,59.8,55.0,30.06,West,273,4.0,9.0,84,0.00,,,0.00,weatherlink.com 1.10,2013-03-20 20:10:00,
2013-03-20 13:28:00,60.0,55.0,30.05,West,259,5.0,10.0,84,0.00,,,0.00,weatherlink.com 1.10,2013-03-20 20:28:00,
2013-03-20 13:30:00,59.8,55.3,30.05,West,263,5.0,10.0,85,0.00,,---,0.00,VWS V14.00,2013-03-20 20:30:00,
2013-03-20 13:34:00,59.8,55.3,30.05,West,263,5.0,10.0,85,0.00,,---,0.00,VWS V14.00,2013-03-20 20:34:00,
2013-03-20 13:44:00,59.7,55.0,30.05,West,277,5.0,12.0,85,0.00,,,0.00,weatherlink.com 1.10,2013-03-20 20:44:00,
2013-03-20 14:00:00,60.5,55.0,30.03,WSW,253,0.0,11.0,82,0.00,,---,0.00,VWS V14.00,2013-03-20 21:00:00,
2013-03-20 14:02:00,60.5,55.0,30.04,West,279,2.0,8.0,83,0.00,,,0.00,weatherlink.com 1.10,2013-03-20 21:02:00,
2013-03-20 14:04:00,60.5,55.0,30.03,WSW,253,0.0,11.0,82,0.00,,---,0.00,VWS V14.00,2013-03-20 21:04:00,
2013-03-20 14:19:00,60.0,55.0,30.02,WSW,246,4.0,11.0,84,0.00,,,0.00,weatherlink.com 1.10,2013-03-20 21:19:00,
2013-03-20 14:30:00,59.3,55.4,30.02,SW,232,0.0,10.0,87,0.00,,---,0.00,VWS V14.00,2013-03-20 21:30:00,
2013-03-20 14:34:00,59.3,55.4,30.02,SW,232,0.0,10.0,87,0.00,,---,0.00,VWS V14.00,2013-03-20 21:34:00,
2013-03-20 14:36:00,59.4,56.0,30.02,SW,222,4.0,10.0,87,0.00,,,0.00,weatherlink.com 1.10,2013-03-20 21:36:00,
2013-03-20 14:53:00,59.6,56.0,30.02,WNW,296,0.0,10.0,86,0.00,,,0.00,weatherlink.com 1.10,2013-03-20 21:53:00,
2013-03-20 15:00:00,60.6,55.8,30.01,SW,217,0.0,10.0,84,0.00,,---,0.00,VWS V14.00,2013-03-20 22:00:00,
2013-03-20 15:04:00,60.6,55.8,30.01,SW,217,0.0,10.0,84,0.00,,---,0.00,VWS V14.00,2013-03-20 22:04:00,
2013-03-20 15:10:00,60.9,56.0,30.01,South,191,4.0,10.0,83,0.00,,,0.00,weatherlink.com 1.10,2013-03-20 22:10:00,
2013-03-20 15:27:00,59.8,55.0,30.02,WSW,257,5.0,11.0,83,0.00,,,0.00,weatherlink.com 1.10,2013-03-20 22:27:00,
2013-03-20 15:30:00,59.6,55.1,30.02,West,265,5.0,11.0,85,0.00,,---,0.00,VWS V14.00,2013-03-20 22:30:00,
2013-03-20 15:34:00,59.6,55.1,30.02,West,265,5.0,11.0,85,0.00,,---,0.00,VWS V14.00,2013-03-20 22:34:00,
2013-03-20 15:44:00,59.4,55.0,30.02,NW,319,6.0,11.0,84,0.00,,,0.00,weatherlink.com 1.10,2013-03-20 22:44:00,
2013-03-20 16:00:00,59.4,54.2,30.02,WNW,287,5.0,11.0,83,0.00,,---,0.00,VWS V14.00,2013-03-20 23:00:00,
2013-03-20 16:02:00,59.3,54.0,30.02,West,279,8.0,11.0,83,0.00,,,0.00,weatherlink.com 1.10,2013-03-20 23:02:00,
2013-03-20 16:04:00,59.4,54.2,30.02,WNW,287,5.0,11.0,83,0.00,,---,0.00,VWS V14.00,2013-03-20 23:04:00,
2013-03-20 16:18:00,59.9,54.0,30.02,West,275,0.0,9.0,81,0.00,,,0.00,weatherlink.com 1.10,2013-03-20 23:18:00,
2013-03-20 16:30:00,60.3,53.4,30.00,WNW,284,5.0,10.0,78,0.00,,---,0.00,VWS V14.00,2013-03-20 23:30:00,
2013-03-20 16:34:00,60.3,53.4,30.00,WNW,284,5.0,10.0,78,0.00,,---,0.00,VWS V14.00,2013-03-20 23:34:00,
2013-03-20 16:54:00,61.4,53.0,30.00,WNW,296,0.0,9.0,74,0.00,,,0.00,weatherlink.com 1.10,2013-03-20 23:54:00,
2013-03-20 17:00:00,61.5,53.5,30.00,West,265,10.0,10.0,75,0.00,,---,0.00,VWS V14.00,2013-03-21 00:00:00,
2013-03-20 17:04:00,61.5,53.5,30.00,West,265,10.0,10.0,75,0.00,,---,0.00,VWS V14.00,2013-03-21 00:04:00,
2013-03-20 17:10:00,60.4,53.0,30.00,West,269,7.0,11.0,76,0.00,,,0.00,weatherlink.com 1.10,2013-03-21 00:10:00,
2013-03-20 17:28:00,60.8,52.0,30.00,NW,325,0.0,6.0,72,0.00,,,0.00,weatherlink.com 1.10,2013-03-21 00:28:00,
2013-03-20 17:30:00,61.4,51.5,29.98,West,271,0.0,11.0,70,0.00,,---,0.00,VWS V14.00,2013-03-21 00:30:00,
2013-03-20 17:34:00,61.4,51.5,29.98,West,271,0.0,11.0,70,0.00,,---,0.00,VWS V14.00,2013-03-21 00:34:00,
2013-03-20 17:44:00,62.1,52.0,29.98,WNW,293,0.0,6.0,69,0.00,,,0.00,weatherlink.com 1.10,2013-03-21 00:44:00,
2013-03-20 18:00:00,63.1,53.2,29.99,West,263,0.0,6.0,70,0.00,,---,0.00,VWS V14.00,2013-03-21 01:00:00,
2013-03-20 18:02:00,63.2,53.0,29.99,West,266,0.0,5.0,70,0.00,,,0.00,weatherlink.com 1.10,2013-03-21 01:02:00,
2013-03-20 18:05:00,63.1,53.2,29.99,West,263,0.0,6.0,70,0.00,,---,0.00,VWS V14.00,2013-03-21 01:05:00,
2013-03-20 18:19:00,60.9,53.0,29.98,West,281,0.0,7.0,75,0.00,,,0.00,weatherlink.com 1.10,2013-03-21 01:19:00,
2013-03-20 18:30:00,59.1,53.3,29.99,WNW,284,0.0,7.0,81,0.00,,---,0.00,VWS V14.00,2013-03-21 01:30:00,
2013-03-20 18:34:00,59.1,53.3,29.99,WNW,284,0.0,7.0,81,0.00,,---,0.00,VWS V14.00,2013-03-21 01:34:00,
2013-03-20 18:36:00,59.0,53.0,29.99,West,263,0.0,7.0,81,0.00,,,0.00,weatherlink.com 1.10,2013-03-21 01:36:00,
2013-03-20 18:53:00,58.0,54.0,29.99,West,267,3.0,9.0,85,0.00,,,0.00,weatherlink.com 1.10,2013-03-21 01:53:00,
2013-03-20 19:00:00,57.5,53.3,29.98,WSW,254,0.0,9.0,86,0.00,,---,0.00,VWS V14.00,2013-03-21 02:00:00,
2013-03-20 19:04:00,57.5,53.3,29.98,WSW,254,0.0,9.0,86,0.00,,---,0.00,VWS V14.00,2013-03-21 02:04:00,
2013-03-20 19:11:00,57.4,53.0,29.98,West,279,0.0,1.0,86,0.00,,,0.00,weatherlink.com 1.10,2013-03-21 02:11:00,
2013-03-20 19:28:00,57.2,53.0,29.99,WNW,297,0.0,6.0,87,0.00,,,0.00,weatherlink.com 1.10,2013-03-21 02:28:00,
2013-03-20 19:30:00,57.1,53.3,29.99,West,281,0.0,6.0,87,0.00,,---,0.00,VWS V14.00,2013-03-21 02:30:00,
2013-03-20 19:34:00,57.1,53.3,29.99,West,281,0.0,6.0,87,0.00,,---,0.00,VWS V14.00,2013-03-21 02:34:00,
2013-03-20 19:45:00,57.0,53.0,29.98,WNW,290,0.0,3.0,87,0.00,,,0.00,weatherlink.com 1.10,2013-03-21 02:45:00,
2013-03-20 20:00:00,57.0,53.2,29.99,WNW,290,0.0,3.0,87,0.00,,---,0.00,VWS V14.00,2013-03-21 03:00:00,
2013-03-20 20:02:00,57.0,53.0,29.98,WNW,290,0.0,0.0,87,0.00,,,0.00,weatherlink.com 1.10,2013-03-21 03:02:00,
2013-03-20 20:04:00,57.0,53.2,29.99,WNW,290,0.0,3.0,87,0.00,,---,0.00,VWS V14.00,2013-03-21 03:04:00,
2013-03-20 20:20:00,56.8,53.0,29.98,WNW,290,0.0,0.0,87,0.00,,,0.00,weatherlink.com 1.10,2013-03-21 03:20:00,
2013-03-20 20:30:00,56.5,53.0,29.98,WNW,290,0.0,0.0,88,0.00,,---,0.00,VWS V14.00,2013-03-21 03:30:00,
2013-03-20 20:34:00,56.5,53.0,29.98,WNW,290,0.0,0.0,88,0.00,,---,0.00,VWS V14.00,2013-03-21 03:34:00,
2013-03-20 20:54:00,56.0,54.0,29.98,WNW,290,0.0,0.0,91,0.00,,,0.00,weatherlink.com 1.10,2013-03-21 03:54:00,
2013-03-20 21:00:00,55.7,53.1,29.98,WNW,290,0.0,0.0,91,0.00,,---,0.00,VWS V14.00,2013-03-21 04:00:00,
2013-03-20 21:04:00,55.7,53.1,29.98,WNW,290,0.0,0.0,91,0.00,,---,0.00,VWS V14.00,2013-03-21 04:04:00,
2013-03-20 21:11:00,55.6,53.0,29.98,WNW,290,0.0,0.0,91,0.00,,,0.00,weatherlink.com 1.10,2013-03-21 04:11:00,
2013-03-20 21:29:00,55.4,53.0,29.98,WNW,290,0.0,0.0,92,0.00,,,0.00,weatherlink.com 1.10,2013-03-21 04:29:00,
2013-03-20 21:30:00,55.4,53.1,29.98,WNW,290,0.0,0.0,92,0.00,,---,0.00,VWS V14.00,2013-03-21 04:30:00,
2013-03-20 21:34:00,55.4,53.1,29.98,WNW,290,0.0,0.0,92,0.00,,---,0.00,VWS V14.00,2013-03-21 04:34:00,
2013-03-20 21:45:00,55.1,53.0,29.98,WNW,290,0.0,0.0,91,0.00,,,0.00,weatherlink.com 1.10,2013-03-21 04:45:00,
2013-03-20 22:00:00,55.2,52.9,29.98,WNW,290,0.0,0.0,92,0.00,,---,0.00,VWS V14.00,2013-03-21 05:00:00,
2013-03-20 22:02:00,55.2,53.0,29.98,WNW,290,0.0,0.0,92,0.00,,,0.00,weatherlink.com 1.10,2013-03-21 05:02:00,
2013-03-20 22:04:00,55.2,52.9,29.98,WNW,290,0.0,0.0,92,0.00,,---,0.00,VWS V14.00,2013-03-21 05:04:00,
2013-03-20 22:20:00,55.3,53.0,29.98,WNW,290,0.0,0.0,93,0.00,,,0.00,weatherlink.com 1.10,2013-03-21 05:20:00,
2013-03-20 22:30:00,55.2,53.2,29.98,WNW,290,0.0,0.0,93,0.00,,---,0.00,VWS V14.00,2013-03-21 05:30:00,
2013-03-20 22:34:00,55.2,53.2,29.98,WNW,290,0.0,0.0,93,0.00,,---,0.00,VWS V14.00,2013-03-21 05:34:00,
2013-03-20 22:37:00,55.1,53.0,29.98,WNW,290,0.0,0.0,93,0.00,,,0.00,weatherlink.com 1.10,2013-03-21 05:37:00,
2013-03-20 22:54:00,55.1,53.0,29.98,WNW,290,0.0,0.0,93,0.00,,,0.00,weatherlink.com 1.10,2013-03-21 05:54:00,
2013-03-20 23:00:00,55.3,53.6,29.98,SSE,161,0.0,0.0,94,0.00,,---,0.00,VWS V14.00,2013-03-21 06:00:00,
2013-03-20 23:04:00,55.3,53.6,29.98,SSE,161,0.0,0.0,94,0.00,,---,0.00,VWS V14.00,2013-03-21 06:04:00,
2013-03-20 23:11:00,55.4,54.0,29.98,SSE,153,0.0,0.0,94,0.00,,,0.00,weatherlink.com 1.10,2013-03-21 06:11:00,
2013-03-20 23:29:00,55.0,53.0,29.98,SSE,147,0.0,1.0,94,0.00,,,0.00,weatherlink.com 1.10,2013-03-21 06:29:00,
2013-03-20 23:30:00,55.0,53.3,29.97,SSE,150,0.0,1.0,94,0.00,,---,0.00,VWS V14.00,2013-03-21 06:30:00,
2013-03-20 23:34:00,55.0,53.3,29.97,SSE,150,0.0,1.0,94,0.00,,---,0.00,VWS V14.00,2013-03-21 06:34:00,
2013-03-20 23:45:00,54.8,53.0,29.97,SE,133,0.0,3.0,94,0.00,,,0.00,weatherlink.com 1.10,2013-03-21 06:45:00,